This is the latest recevied weather packets stored in our database for station/object HB9EKJ-13. If no packets are shown the sender has not sent any weather packets the latest 1 day(s).
| Time | Temp. | Humidity | Pressure | Rain* | Wind** | Luminosity | Snow |
|---|---|---|---|---|---|---|---|
| 1778086328 | 12.78° C | 32% | 1011.8 hPa | 0 mm | - | - | - |
| 1778077627 | 10° C | 36% | 1011.8 hPa | 0 mm | - | - | - |
| 1778074028 | 12.22° C | 26% | 1010.8 hPa | 0 mm | - | - | - |
| 1778073729 | 12.22° C | 26% | 1010.8 hPa | 0 mm | - | - | - |
| 1778072228 | 14.44° C | 17% | 1009.7 hPa | 0 mm | - | - | - |
| 1778067729 | 17.78° C | 16% | 1008.7 hPa | 0 mm | - | - | - |
| 1778065927 | 17.78° C | 16% | 1009.7 hPa | 0 mm | - | - | - |
| 1778064427 | 17.78° C | 15% | 1009.7 hPa | 0 mm | - | - | - |
| 1778063528 | 19.44° C | 15% | 1009.7 hPa | 0 mm | - | - | - |
| 1778062328 | 18.33° C | 15% | 1009.7 hPa | 0 mm | - | - | - |
| 1778060827 | 18.89° C | 15% | 1009.7 hPa | 0 mm | - | - | - |
| 1778059627 | 19.44° C | 15% | 1009.7 hPa | 0 mm | - | - | - |
| 1778058728 | 18.89° C | 15% | 1009.7 hPa | 0 mm | - | - | - |
| 1778056028 | 17.22° C | 16% | 1009.7 hPa | 0 mm | - | - | - |
| 1778054529 | 15° C | 19% | 1009.7 hPa | 0 mm | - | - | - |
| 1778052728 | 13.33° C | 25% | 1009.7 hPa | 0 mm | - | - | - |
| 1778051828 | 13.33° C | 26% | 1010.8 hPa | 0 mm | - | - | - |
| 1778050328 | 12.22° C | 28% | 1009.7 hPa | 0 mm | - | - | - |
| 1778050028 | 12.22° C | 28% | 1009.7 hPa | 0 mm | - | - | - |
| 1778049427 | 12.22° C | 28% | 1009.7 hPa | 0 mm | - | - | - |
| 1778047628 | 11.11° C | 30% | 1009.7 hPa | 0 mm | - | - | - |
| 1778046728 | 11.11° C | 31% | 1009.7 hPa | 0 mm | - | - | - |
| 1778046427 | 10.56° C | 31% | 1009.7 hPa | 0 mm | - | - | - |
| 1778043728 | 10° C | 32% | 1009.7 hPa | 0 mm | - | - | - |
| 1778038628 | 9.44° C | 31% | 1010.8 hPa | 0 mm | - | - | - |
* Rain latest hour (hover to see other rain measurements)
** Current wind speed in m/s (hover to see current wind gust speed)